Bark River, Michigan
Current Conditions -  °F | °C
As of 9:15 AM on Friday 19 Dec 2014 (Local Time) from KESC Reporting Station
Overcast Overcast  
Wind Chill: -11°   Ceiling: 2400
Heat Index: -11°   Visibility: 10mi
Dew Point: -13°   Wind: 0mph
Humidity: 85%   Direction: NA
Pressure: 30.29"   Gusts: NA
Location:  45.71°N, 87.3°W
Report Text: KESC 191415Z AUTO 00000KT 10SM OVC024 M11/M13 A3029 RMK AO1
Loading
Personal Weather Stations






























Interactive Weather Map New forecast layout! Learn more

10-Day Weather Forecast

Advertisements
Track Severe Weather on mobile